Time;durP1;ratioP1;P1;durP2;ratioP2;P2;SDS_P1;SDS_P2;PMS_P1;PMS_P2;Temp;Humidity;BMP_temperature;BMP_pressure;BME280_temperature;BME280_humidity;BME280_pressure;Samples;Min_cycle;Max_cycle;Signal;HPM_P1;HPM_P2
2021/10/15 00:00:53;;;;;;;5.55;4.93;;;13.10;99.90;;;;;;5036388;28;20411;-62
2021/10/15 00:03:19;;;;;;;8.10;5.65;;;13.10;99.90;;;;;;5071036;28;20040;-62
2021/10/15 00:05:45;;;;;;;8.38;6.13;;;13.10;99.90;;;;;;5066916;28;20045;-63
2021/10/15 00:08:10;;;;;;;9.75;6.85;;;13.10;99.90;;;;;;5030311;28;20041;-62
2021/10/15 00:10:36;;;;;;;8.10;6.75;;;13.10;99.90;;;;;;5042068;28;20120;-62
2021/10/15 00:13:01;;;;;;;12.52;7.78;;;13.10;99.90;;;;;;5055001;28;20032;-62
2021/10/15 00:15:27;;;;;;;11.88;7.30;;;13.10;99.90;;;;;;5061790;28;20039;-63
2021/10/15 00:17:52;;;;;;;11.63;7.78;;;13.10;99.90;;;;;;5069794;28;20094;-63
2021/10/15 00:20:18;;;;;;;14.40;9.23;;;13.20;99.90;;;;;;5038844;28;20049;-63
2021/10/15 00:22:43;;;;;;;15.13;9.10;;;13.20;99.90;;;;;;5050595;28;20494;-63
2021/10/15 00:25:09;;;;;;;13.02;9.15;;;13.20;99.90;;;;;;5065713;28;20044;-62
2021/10/15 00:27:34;;;;;;;12.00;9.43;;;13.20;99.90;;;;;;5061401;28;20051;-62
2021/10/15 00:30:00;;;;;;;15.55;10.23;;;13.10;99.90;;;;;;5046781;28;20505;-62
2021/10/15 00:32:26;;;;;;;11.32;10.02;;;13.10;99.90;;;;;;5070768;28;20047;-62
2021/10/15 00:34:51;;;;;;;16.60;11.07;;;13.10;99.90;;;;;;5065646;28;20090;-62
2021/10/15 00:37:19;;;;;;;12.98;10.85;;;13.10;99.90;;;;;;5044182;28;20061;-62
2021/10/15 00:39:45;;;;;;;12.68;9.25;;;13.10;99.90;;;;;;5069131;28;20043;-62
2021/10/15 00:42:11;;;;;;;14.07;11.02;;;13.20;99.90;;;;;;5070671;28;20029;-62
2021/10/15 00:44:37;;;;;;;13.02;10.90;;;13.20;99.90;;;;;;5055544;28;20029;-62
2021/10/15 00:47:03;;;;;;;15.70;11.27;;;13.20;99.90;;;;;;5049068;28;20044;-62
2021/10/15 00:49:29;;;;;;;14.60;11.65;;;13.20;99.90;;;;;;5062778;28;20395;-62
2021/10/15 00:51:54;;;;;;;13.75;11.63;;;13.20;99.90;;;;;;5059078;28;20037;-62
2021/10/15 00:54:20;;;;;;;16.88;11.68;;;13.20;99.90;;;;;;5073796;28;20064;-62
2021/10/15 00:56:45;;;;;;;14.43;12.68;;;13.20;99.90;;;;;;5057039;28;20041;-63
2021/10/15 00:59:12;;;;;;;18.73;13.25;;;13.30;99.90;;;;;;5072852;28;20040;-62
2021/10/15 01:01:38;;;;;;;16.90;13.45;;;13.30;99.90;;;;;;5073321;28;20729;-62
2021/10/15 01:04:03;;;;;;;15.52;12.48;;;13.30;99.90;;;;;;5070130;28;20044;-63
2021/10/15 01:06:31;;;;;;;15.15;11.73;;;13.30;99.90;;;;;;5070199;28;20415;-62
2021/10/15 01:08:57;;;;;;;18.52;13.45;;;13.30;99.90;;;;;;5072109;28;20044;-63
2021/10/15 01:11:23;;;;;;;13.68;12.05;;;13.30;99.90;;;;;;5054242;28;20041;-62
2021/10/15 01:13:49;;;;;;;15.20;12.15;;;13.30;99.90;;;;;;5064029;28;20063;-62
2021/10/15 01:16:15;;;;;;;14.45;12.32;;;13.30;99.90;;;;;;5072500;28;20136;-63
2021/10/15 01:18:42;;;;;;;15.52;13.30;;;13.30;99.90;;;;;;5045578;28;20135;-62
2021/10/15 01:21:09;;;;;;;15.02;12.50;;;13.30;99.90;;;;;;5070729;28;20052;-62
2021/10/15 01:23:36;;;;;;;16.95;12.38;;;13.30;99.90;;;;;;5051157;28;20057;-62
2021/10/15 01:26:02;;;;;;;17.65;12.32;;;13.30;99.90;;;;;;5069409;28;20042;-63
2021/10/15 01:28:30;;;;;;;14.10;12.15;;;13.40;99.90;;;;;;5073742;28;20040;-62
2021/10/15 01:30:57;;;;;;;17.33;12.63;;;13.40;99.90;;;;;;5075837;28;20062;-62
2021/10/15 01:33:23;;;;;;;16.67;12.50;;;13.40;99.90;;;;;;5071767;28;20112;-62
2021/10/15 01:35:48;;;;;;;17.02;13.48;;;13.40;99.90;;;;;;5067353;28;20507;-62
2021/10/15 01:38:14;;;;;;;18.77;15.63;;;13.40;99.90;;;;;;5057453;28;20041;-63
2021/10/15 01:40:41;;;;;;;18.65;15.50;;;13.30;99.90;;;;;;5058047;28;20028;-62
2021/10/15 01:43:07;;;;;;;17.95;15.95;;;13.30;99.90;;;;;;5072588;28;20040;-62
2021/10/15 01:45:33;;;;;;;20.90;16.38;;;13.30;99.90;;;;;;5063714;28;20028;-62
2021/10/15 01:47:59;;;;;;;20.20;17.65;;;13.30;99.90;;;;;;5070033;28;20040;-62
2021/10/15 01:50:27;;;;;;;21.70;17.52;;;13.20;99.90;;;;;;5073092;28;20059;-63
2021/10/15 01:52:53;;;;;;;21.80;18.40;;;13.20;99.90;;;;;;5045902;28;20072;-62
2021/10/15 01:55:19;;;;;;;20.88;18.73;;;13.20;99.90;;;;;;5027103;28;20114;-62
2021/10/15 01:57:45;;;;;;;24.42;19.92;;;13.20;99.90;;;;;;5054393;28;20051;-62
2021/10/15 02:00:13;;;;;;;22.23;19.90;;;13.20;99.90;;;;;;5069541;28;20036;-62
2021/10/15 02:02:39;;;;;;;21.77;19.70;;;13.20;99.90;;;;;;5068662;28;20044;-62
2021/10/15 02:05:06;;;;;;;25.50;21.23;;;13.20;99.90;;;;;;5059491;28;20047;-62
2021/10/15 02:07:32;;;;;;;24.35;21.63;;;13.20;99.90;;;;;;5069241;28;20385;-62
2021/10/15 02:09:58;;;;;;;22.48;19.48;;;13.20;99.90;;;;;;5061942;28;20037;-62
2021/10/15 02:12:23;;;;;;;22.80;20.25;;;13.10;99.90;;;;;;5032174;28;20048;-62
2021/10/15 02:14:49;;;;;;;25.02;20.50;;;13.20;99.90;;;;;;5041243;28;20568;-62
2021/10/15 02:17:14;;;;;;;27.30;21.90;;;13.20;99.90;;;;;;5068589;28;20124;-62
2021/10/15 02:19:40;;;;;;;22.98;19.27;;;13.20;99.90;;;;;;5050505;28;20068;-63
2021/10/15 02:22:06;;;;;;;22.10;19.38;;;13.20;99.90;;;;;;5052478;28;20052;-62
2021/10/15 02:24:31;;;;;;;26.05;20.95;;;13.20;99.90;;;;;;5069719;28;20039;-62
2021/10/15 02:26:57;;;;;;;24.48;20.25;;;13.20;99.90;;;;;;5070535;28;20047;-62
2021/10/15 02:29:22;;;;;;;22.58;20.05;;;13.20;99.90;;;;;;5039753;28;20037;-63
2021/10/15 02:31:48;;;;;;;24.63;21.92;;;13.20;99.90;;;;;;5068133;28;20459;-62
2021/10/15 02:34:15;;;;;;;24.75;22.30;;;13.20;99.90;;;;;;5058975;28;20458;-62
2021/10/15 02:36:41;;;;;;;24.10;20.95;;;13.20;99.90;;;;;;5074731;22;20122;-65
2021/10/15 02:39:07;;;;;;;24.55;21.65;;;13.20;99.90;;;;;;5050592;28;20521;-65
2021/10/15 02:41:37;;;;;;;29.52;19.65;;;13.20;99.90;;;;;;5052072;28;20040;-65
2021/10/15 02:44:09;;;;;;;26.30;20.23;;;13.20;99.90;;;;;;5051581;28;20056;-64
2021/10/15 02:46:35;;;;;;;23.77;20.15;;;13.20;99.90;;;;;;5066553;28;20492;-65
2021/10/15 02:49:01;;;;;;;23.20;19.27;;;13.10;99.90;;;;;;5050792;28;20049;-64
2021/10/15 02:51:27;;;;;;;24.23;18.45;;;13.20;99.90;;;;;;5052211;28;20049;-65
2021/10/15 02:53:53;;;;;;;22.70;18.40;;;13.10;99.90;;;;;;5052132;28;20075;-65
2021/10/15 02:56:19;;;;;;;23.65;17.95;;;13.10;99.90;;;;;;5050383;28;20041;-65
2021/10/15 02:58:44;;;;;;;21.70;17.02;;;13.10;99.90;;;;;;5052059;28;20048;-65
2021/10/15 03:01:10;;;;;;;20.33;16.58;;;13.10;99.90;;;;;;5050140;28;20040;-65
2021/10/15 03:03:35;;;;;;;20.27;16.42;;;13.10;99.90;;;;;;5050686;28;20044;-65
2021/10/15 03:06:02;;;;;;;19.58;15.70;;;13.10;99.90;;;;;;5039067;28;20644;-64
2021/10/15 03:08:27;;;;;;;18.35;15.32;;;13.20;99.90;;;;;;5061444;28;20093;-64
2021/10/15 03:10:53;;;;;;;20.90;16.08;;;13.20;99.90;;;;;;5052838;28;20045;-64
2021/10/15 03:13:18;;;;;;;21.95;15.20;;;13.20;99.90;;;;;;5049701;28;20032;-64
2021/10/15 03:15:44;;;;;;;19.40;15.57;;;13.20;99.90;;;;;;5051218;28;20064;-64
2021/10/15 03:18:10;;;;;;;20.02;15.98;;;13.20;99.90;;;;;;5050596;28;20419;-64
2021/10/15 03:20:36;;;;;;;17.48;14.60;;;13.20;99.90;;;;;;5051572;28;20045;-64
2021/10/15 03:23:05;;;;;;;22.95;15.35;;;13.20;99.90;;;;;;5050738;28;20382;-64
2021/10/15 03:25:31;;;;;;;18.98;15.48;;;13.20;99.90;;;;;;5051693;28;20041;-64
2021/10/15 03:27:57;;;;;;;17.83;14.40;;;13.20;99.90;;;;;;5048402;28;20044;-64
2021/10/15 03:30:23;;;;;;;19.20;13.32;;;13.30;99.90;;;;;;5050246;28;20048;-64
2021/10/15 03:32:48;;;;;;;21.70;14.43;;;13.30;99.90;;;;;;5050604;28;20045;-64
2021/10/15 03:35:14;;;;;;;19.90;13.30;;;13.30;99.90;;;;;;5051327;28;20045;-64
2021/10/15 03:37:39;;;;;;;16.58;13.55;;;13.30;99.90;;;;;;5051046;28;20045;-64
2021/10/15 03:40:06;;;;;;;18.33;12.57;;;13.30;99.90;;;;;;5048900;28;20052;-64
2021/10/15 03:42:32;;;;;;;17.15;12.90;;;13.30;99.90;;;;;;5049267;28;20037;-64
2021/10/15 03:44:58;;;;;;;26.63;13.80;;;13.30;99.90;;;;;;5050678;28;20044;-64
2021/10/15 03:47:23;;;;;;;17.23;13.02;;;13.30;99.90;;;;;;5050873;28;20037;-64
2021/10/15 03:49:49;;;;;;;17.30;13.23;;;13.30;99.90;;;;;;5050384;28;20147;-64
2021/10/15 03:52:15;;;;;;;16.50;12.18;;;13.30;99.90;;;;;;5049918;28;20068;-64
2021/10/15 03:54:40;;;;;;;15.60;11.60;;;13.30;99.90;;;;;;5050420;28;20463;-64
2021/10/15 03:57:06;;;;;;;15.70;11.77;;;13.30;99.90;;;;;;5049883;28;20041;-64
2021/10/15 03:59:31;;;;;;;14.32;11.07;;;13.30;99.90;;;;;;5051098;28;20437;-64
2021/10/15 04:01:57;;;;;;;16.90;11.93;;;13.30;99.90;;;;;;5050037;28;20067;-64
2021/10/15 04:04:22;;;;;;;15.85;11.38;;;13.30;99.90;;;;;;5050805;28;20029;-64
2021/10/15 04:06:48;;;;;;;18.10;11.90;;;13.30;99.90;;;;;;5051040;28;20048;-64
2021/10/15 04:09:14;;;;;;;17.08;11.93;;;13.30;99.90;;;;;;5050921;28;20048;-64
2021/10/15 04:11:39;;;;;;;18.02;11.27;;;13.30;99.90;;;;;;5051105;28;20045;-64
2021/10/15 04:14:05;;;;;;;17.77;11.60;;;13.30;99.90;;;;;;5050089;28;20041;-64
2021/10/15 04:16:31;;;;;;;20.80;11.50;;;13.30;99.90;;;;;;5054788;28;20033;-64
2021/10/15 04:18:56;;;;;;;14.40;10.95;;;13.40;99.90;;;;;;5054641;28;20441;-64
2021/10/15 04:21:22;;;;;;;18.55;11.35;;;13.40;99.90;;;;;;5055037;28;20040;-64
2021/10/15 04:23:47;;;;;;;19.33;11.63;;;13.30;99.90;;;;;;5055098;28;20040;-64
2021/10/15 04:26:13;;;;;;;17.45;11.07;;;13.40;99.90;;;;;;5054955;28;20128;-64
2021/10/15 04:28:39;;;;;;;17.55;10.60;;;13.30;99.90;;;;;;5052966;28;20033;-65
2021/10/15 04:31:04;;;;;;;15.18;10.13;;;13.30;99.90;;;;;;5052860;28;20037;-65
2021/10/15 04:33:30;;;;;;;14.75;8.70;;;13.30;99.90;;;;;;5067425;28;20424;-65
2021/10/15 04:35:55;;;;;;;16.08;10.70;;;13.30;99.90;;;;;;5057443;28;20053;-65
2021/10/15 04:38:21;;;;;;;14.20;9.10;;;13.30;99.90;;;;;;5052597;28;20057;-65
2021/10/15 04:40:46;;;;;;;17.65;9.63;;;13.30;99.90;;;;;;5054290;28;20041;-65
2021/10/15 04:43:12;;;;;;;14.75;8.50;;;13.30;99.90;;;;;;5054627;28;20071;-64
2021/10/15 04:45:38;;;;;;;14.80;8.65;;;13.30;99.90;;;;;;5053992;28;20081;-64
2021/10/15 04:48:04;;;;;;;13.45;9.52;;;13.40;99.90;;;;;;5052883;28;20119;-64
2021/10/15 04:50:30;;;;;;;12.93;9.20;;;13.30;99.90;;;;;;5051001;28;20041;-64
2021/10/15 04:52:56;;;;;;;16.20;9.00;;;13.40;99.90;;;;;;5052619;28;20094;-64
2021/10/15 04:55:22;;;;;;;14.32;8.35;;;13.30;99.90;;;;;;5053144;28;20037;-64
2021/10/15 04:57:48;;;;;;;12.70;7.40;;;13.30;99.90;;;;;;5054174;28;20044;-64
2021/10/15 05:00:14;;;;;;;14.35;9.07;;;13.30;99.90;;;;;;5052800;28;20041;-64
2021/10/15 05:02:40;;;;;;;11.82;7.35;;;13.20;99.90;;;;;;5053908;28;20378;-64
2021/10/15 05:05:08;;;;;;;15.77;8.45;;;13.30;99.90;;;;;;5064114;28;20033;-65
2021/10/15 05:07:34;;;;;;;15.10;8.27;;;13.30;99.90;;;;;;5054210;28;20041;-65
2021/10/15 05:10:00;;;;;;;13.32;6.72;;;13.20;99.90;;;;;;5054096;28;20045;-64
2021/10/15 05:12:26;;;;;;;13.98;6.82;;;13.20;99.90;;;;;;5054205;28;20041;-65
2021/10/15 05:14:51;;;;;;;12.52;6.97;;;13.20;99.90;;;;;;5052555;28;20528;-64
2021/10/15 05:17:17;;;;;;;13.20;6.40;;;13.10;99.90;;;;;;5052587;28;20087;-65
2021/10/15 05:19:43;;;;;;;11.48;6.05;;;13.20;99.90;;;;;;5053753;28;20079;-66
2021/10/15 05:22:09;;;;;;;3.53;2.00;;;13.20;99.90;;;;;;5032111;28;20048;-65
2021/10/15 05:24:35;;;;;;;4.25;1.90;;;13.20;99.90;;;;;;5053765;28;20036;-65
2021/10/15 05:27:00;;;;;;;3.03;1.60;;;13.00;99.90;;;;;;5051328;28;20553;-65
2021/10/15 05:29:26;;;;;;;2.45;0.95;;;12.70;99.90;;;;;;5052138;28;20069;-64
2021/10/15 05:31:51;;;;;;;3.45;0.90;;;12.40;99.90;;;;;;5053784;28;20094;-64
2021/10/15 05:34:17;;;;;;;3.92;1.02;;;12.10;99.90;;;;;;5053438;28;20068;-64
2021/10/15 05:36:44;;;;;;;2.88;0.75;;;12.00;99.90;;;;;;5053473;28;20080;-64
2021/10/15 05:39:09;;;;;;;3.42;0.75;;;12.00;99.90;;;;;;5047933;28;20107;-64
2021/10/15 05:41:35;;;;;;;3.83;0.60;;;11.90;99.90;;;;;;5051138;28;20475;-64
2021/10/15 05:44:01;;;;;;;4.00;0.43;;;11.90;99.90;;;;;;5052860;28;20383;-64
2021/10/15 05:46:26;;;;;;;2.88;0.60;;;11.80;99.90;;;;;;5053249;28;20582;-64
2021/10/15 05:48:52;;;;;;;1.77;0.57;;;11.60;99.90;;;;;;5034802;28;20478;-64
2021/10/15 05:51:18;;;;;;;3.13;0.88;;;11.50;99.90;;;;;;5052668;28;20039;-64
2021/10/15 05:53:45;;;;;;;5.95;1.17;;;11.40;99.90;;;;;;5052187;28;20064;-64
2021/10/15 05:58:52;;;;;;;5.10;1.02;;;11.30;99.90;;;;;;5049789;28;20053;-64
2021/10/15 06:01:26;;;;;;;7.50;1.20;;;11.30;99.90;;;;;;5052832;28;20418;-65
2021/10/15 06:04:17;;;;;;;7.10;1.10;;;11.30;99.90;;;;;;5052895;28;20597;-65
2021/10/15 06:15:09;;;;;;;7.22;1.40;;;11.10;99.90;;;;;;4990827;28;20128;-64
2021/10/15 06:17:42;;;;;;;6.93;1.30;;;11.10;99.90;;;;;;5034469;28;20127;-64
2021/10/15 06:20:08;;;;;;;7.45;1.50;;;11.20;99.90;;;;;;5049013;28;20033;-64
2021/10/15 06:22:34;;;;;;;8.25;1.35;;;11.10;99.90;;;;;;5047620;28;20037;-64
2021/10/15 06:24:59;;;;;;;8.40;1.67;;;11.10;99.90;;;;;;5049605;28;20044;-64
2021/10/15 06:27:26;;;;;;;6.93;1.38;;;11.10;99.90;;;;;;5050573;28;20053;-64
2021/10/15 06:29:52;;;;;;;8.48;1.40;;;11.10;99.90;;;;;;5050093;28;20462;-64
2021/10/15 06:32:19;;;;;;;7.20;1.25;;;11.10;99.90;;;;;;5049562;28;20048;-64
2021/10/15 06:34:45;;;;;;;8.82;1.83;;;11.00;99.90;;;;;;5045866;28;20433;-64
2021/10/15 06:37:11;;;;;;;10.07;1.48;;;11.00;99.90;;;;;;5047519;28;20114;-64
2021/10/15 06:39:37;;;;;;;8.65;1.50;;;10.90;99.90;;;;;;5050708;28;20053;-65
2021/10/15 06:42:03;;;;;;;7.45;1.48;;;11.00;99.90;;;;;;5051127;28;20028;-64
2021/10/15 06:44:29;;;;;;;6.55;1.42;;;10.90;99.90;;;;;;5049712;28;20037;-64
2021/10/15 06:46:54;;;;;;;8.32;1.20;;;10.90;99.90;;;;;;5049315;28;20037;-65
2021/10/15 06:49:20;;;;;;;8.63;1.63;;;10.90;99.90;;;;;;5049551;28;20098;-65
2021/10/15 06:51:46;;;;;;;6.15;1.00;;;10.90;99.90;;;;;;5050720;28;20055;-65
2021/10/15 06:54:12;;;;;;;10.10;1.70;;;10.90;99.90;;;;;;5052191;28;20044;-65
2021/10/15 06:56:38;;;;;;;10.35;1.75;;;10.90;99.90;;;;;;5050495;28;20040;-65
2021/10/15 06:59:04;;;;;;;6.88;1.02;;;10.90;99.90;;;;;;5051976;28;20489;-65
2021/10/15 07:01:33;;;;;;;12.00;1.83;;;10.90;99.90;;;;;;5051859;28;20052;-65
2021/10/15 07:03:59;;;;;;;7.80;1.42;;;10.80;99.90;;;;;;5050134;28;20532;-65
2021/10/15 07:06:25;;;;;;;5.28;1.33;;;10.90;99.90;;;;;;5050371;28;20041;-65
2021/10/15 07:08:51;;;;;;;8.05;1.60;;;10.90;99.90;;;;;;5049173;28;20045;-66
2021/10/15 07:11:17;;;;;;;5.45;1.38;;;10.90;99.90;;;;;;5047042;28;20049;-65
2021/10/15 07:13:43;;;;;;;8.63;1.90;;;10.90;99.90;;;;;;5050396;28;20048;-65
2021/10/15 07:16:10;;;;;;;9.60;1.80;;;10.90;99.90;;;;;;5049218;28;20367;-65
2021/10/15 07:18:38;;;;;;;9.07;1.83;;;10.90;99.90;;;;;;5049851;28;20409;-65
2021/10/15 07:21:04;;;;;;;6.32;1.73;;;10.90;99.90;;;;;;5049859;28;20379;-65
2021/10/15 07:23:30;;;;;;;6.75;1.15;;;10.90;99.90;;;;;;5060764;28;20045;-65
2021/10/15 07:25:56;;;;;;;8.10;1.30;;;10.90;99.90;;;;;;5048349;28;20033;-66
2021/10/15 07:28:22;;;;;;;7.80;1.38;;;11.00;99.90;;;;;;5049606;28;20049;-65
2021/10/15 07:30:48;;;;;;;7.15;1.27;;;11.00;99.90;;;;;;5046219;28;20039;-65
2021/10/15 07:33:14;;;;;;;7.40;1.45;;;11.10;99.90;;;;;;5040002;28;20124;-66
2021/10/15 07:35:39;;;;;;;6.70;1.13;;;11.20;99.90;;;;;;5042587;28;20049;-66
2021/10/15 07:38:05;;;;;;;7.68;1.65;;;11.30;99.90;;;;;;5049863;28;20056;-66
2021/10/15 07:40:31;;;;;;;8.75;1.08;;;11.30;99.90;;;;;;5051371;28;20112;-66
2021/10/15 07:42:56;;;;;;;7.30;0.90;;;11.40;99.90;;;;;;5048653;28;20694;-65
2021/10/15 07:45:22;;;;;;;8.25;1.40;;;11.40;99.90;;;;;;5051158;28;20491;-66
2021/10/15 07:47:47;;;;;;;4.68;1.00;;;11.50;99.90;;;;;;5050060;28;20483;-66
2021/10/15 07:50:13;;;;;;;7.95;1.27;;;11.60;99.90;;;;;;5032655;28;20049;-66
2021/10/15 07:52:40;;;;;;;7.13;1.00;;;11.70;99.90;;;;;;5049600;28;20095;-66
2021/10/15 07:55:07;;;;;;;5.68;0.95;;;11.60;99.90;;;;;;5050119;28;20071;-66
2021/10/15 07:57:32;;;;;;;5.03;1.20;;;11.60;99.90;;;;;;5050019;28;20045;-64
2021/10/15 07:59:58;;;;;;;8.65;1.10;;;11.50;99.90;;;;;;5051385;28;20167;-65
2021/10/15 08:02:25;;;;;;;5.95;1.60;;;11.60;99.90;;;;;;5051072;28;20056;-65
2021/10/15 08:04:51;;;;;;;5.47;1.27;;;11.60;99.90;;;;;;5050967;28;20056;-65
2021/10/15 08:07:16;;;;;;;8.40;1.52;;;11.70;99.90;;;;;;5048078;28;20041;-66
2021/10/15 08:09:42;;;;;;;7.05;0.98;;;11.80;99.90;;;;;;5051033;28;20040;-66
2021/10/15 08:12:07;;;;;;;9.80;1.40;;;11.90;99.90;;;;;;5049364;28;20041;-65
2021/10/15 08:14:33;;;;;;;8.98;1.20;;;11.80;99.90;;;;;;5049646;28;20381;-66
2021/10/15 08:16:58;;;;;;;7.55;1.88;;;11.90;99.90;;;;;;5050747;28;20126;-66
2021/10/15 08:19:24;;;;;;;8.60;1.23;;;11.90;99.90;;;;;;5050963;28;20045;-65
2021/10/15 08:21:50;;;;;;;8.27;1.40;;;12.00;99.90;;;;;;5051104;28;20041;-65
2021/10/15 08:24:15;;;;;;;7.38;1.10;;;12.00;99.90;;;;;;5048401;28;20123;-66
2021/10/15 08:26:41;;;;;;;9.48;1.73;;;12.20;99.90;;;;;;5050982;28;20524;-64
2021/10/15 08:29:07;;;;;;;7.93;1.30;;;12.20;99.90;;;;;;5050838;28;20120;-66
2021/10/15 08:31:33;;;;;;;10.32;1.58;;;12.30;99.90;;;;;;5048614;28;20062;-66
2021/10/15 08:33:59;;;;;;;9.55;1.30;;;12.30;99.90;;;;;;5048641;28;20055;-66
2021/10/15 08:36:25;;;;;;;7.10;1.10;;;12.30;99.90;;;;;;5049185;28;20128;-66
2021/10/15 08:38:52;;;;;;;8.88;1.33;;;12.30;99.90;;;;;;5049287;28;20116;-66
2021/10/15 08:41:25;;;;;;;9.93;1.70;;;12.40;99.90;;;;;;5047995;28;20486;-66
2021/10/15 08:43:57;;;;;;;8.88;1.45;;;12.40;99.90;;;;;;5050715;28;20033;-66
2021/10/15 08:46:23;;;;;;;8.32;1.65;;;12.40;99.90;;;;;;5036404;28;20552;-66
2021/10/15 08:48:49;;;;;;;13.23;1.83;;;12.50;99.90;;;;;;5048859;28;20060;-66
2021/10/15 08:51:15;;;;;;;10.27;1.98;;;12.50;99.90;;;;;;5049224;28;20044;-66
2021/10/15 08:53:55;;;;;;;8.10;1.30;;;12.50;99.90;;;;;;5050715;28;20639;-66
2021/10/15 08:56:22;;;;;;;9.15;1.60;;;12.60;99.90;;;;;;5050558;28;20465;-66
2021/10/15 08:58:55;;;;;;;9.82;1.60;;;12.60;99.90;;;;;;5049107;28;20523;-66
2021/10/15 09:01:25;;;;;;;9.43;1.55;;;12.60;99.90;;;;;;5051817;28;20045;-66
2021/10/15 09:04:03;;;;;;;14.27;1.60;;;12.60;99.90;;;;;;5052484;28;20040;-65
2021/10/15 09:06:35;;;;;;;8.75;1.60;;;12.60;99.90;;;;;;5054325;28;20414;-66
2021/10/15 09:09:01;;;;;;;9.60;1.92;;;12.60;99.90;;;;;;5052878;28;20044;-66
2021/10/15 09:11:30;;;;;;;11.57;1.70;;;12.60;99.90;;;;;;5053007;28;20111;-66
2021/10/15 09:14:23;;;;;;;11.57;2.38;;;12.70;99.90;;;;;;5033983;28;20365;-66
2021/10/15 09:16:52;;;;;;;11.70;2.15;;;12.80;99.90;;;;;;5036516;28;20053;-66
2021/10/15 09:19:26;;;;;;;12.40;1.90;;;12.80;99.90;;;;;;5051000;28;20057;-66
2021/10/15 09:22:22;;;;;;;10.65;1.83;;;12.90;99.90;;;;;;5033900;28;20120;-66
2021/10/15 09:24:54;;;;;;;8.13;1.70;;;13.10;99.90;;;;;;5034046;28;20104;-66
2021/10/15 09:27:21;;;;;;;12.75;2.10;;;13.30;99.90;;;;;;5050400;28;20048;-66
2021/10/15 09:29:50;;;;;;;11.68;1.92;;;13.20;99.90;;;;;;5053386;28;20084;-66
2021/10/15 09:32:17;;;;;;;10.95;2.33;;;13.00;99.90;;;;;;5052691;28;20040;-66
2021/10/15 09:34:44;;;;;;;12.70;3.25;;;13.10;99.90;;;;;;5050566;28;20060;-66
2021/10/15 09:37:15;;;;;;;14.38;2.67;;;13.10;99.90;;;;;;5053125;28;20053;-66
2021/10/15 09:39:41;;;;;;;11.35;2.72;;;13.10;99.90;;;;;;5052174;28;20128;-66
2021/10/15 09:42:23;;;;;;;14.75;2.42;;;13.20;99.90;;;;;;5053560;28;20037;-66
2021/10/15 09:44:48;;;;;;;16.50;2.30;;;13.20;99.90;;;;;;5053398;28;20108;-66
2021/10/15 09:47:24;;;;;;;16.58;2.50;;;13.20;99.90;;;;;;5052048;28;20175;-66
2021/10/15 09:49:52;;;;;;;12.10;2.60;;;13.30;99.90;;;;;;5053356;28;20101;-67
2021/10/15 09:52:27;;;;;;;11.18;2.50;;;13.20;99.90;;;;;;5051370;28;20044;-66
2021/10/15 09:55:21;;;;;;;14.73;2.40;;;13.30;99.90;;;;;;5051909;28;20043;-68
2021/10/15 09:57:50;;;;;;;16.23;2.25;;;13.30;99.90;;;;;;5044984;28;20060;-67
2021/10/15 10:00:21;;;;;;;18.83;3.30;;;13.30;99.90;;;;;;5033586;28;20044;-67
2021/10/15 10:02:47;;;;;;;15.60;2.95;;;13.30;99.90;;;;;;5055164;28;20048;-67
2021/10/15 10:05:15;;;;;;;17.08;3.78;;;13.40;99.90;;;;;;5032814;28;20088;-67
2021/10/15 10:07:43;;;;;;;20.27;3.28;;;13.50;99.90;;;;;;5063676;28;20481;-68
2021/10/15 10:10:11;;;;;;;13.20;3.03;;;13.90;99.90;;;;;;5049714;28;20066;-68
2021/10/15 10:12:38;;;;;;;15.77;2.90;;;14.00;99.90;;;;;;5029585;28;20041;-68
2021/10/15 10:15:06;;;;;;;13.27;2.95;;;14.20;99.90;;;;;;5048742;28;20040;-69
2021/10/15 10:17:44;;;;;;;12.38;2.30;;;14.00;99.90;;;;;;5045005;28;20037;-71
2021/10/15 10:20:15;;;;;;;12.27;2.50;;;13.90;99.90;;;;;;5048321;28;20056;-69
2021/10/15 10:22:47;;;;;;;19.65;2.63;;;13.90;99.90;;;;;;5049446;28;20053;-69
2021/10/15 10:25:20;;;;;;;15.38;3.00;;;13.80;99.90;;;;;;5049350;28;20045;-68
2021/10/15 10:27:46;;;;;;;17.20;3.10;;;13.90;99.90;;;;;;5048652;28;20041;-68
2021/10/15 10:30:12;;;;;;;16.20;2.97;;;13.90;99.90;;;;;;5049806;28;20530;-67
2021/10/15 10:32:37;;;;;;;14.98;2.83;;;13.90;99.90;;;;;;5051354;28;20036;-68
2021/10/15 10:35:24;;;;;;;11.45;2.28;;;13.90;99.90;;;;;;5048611;28;20041;-67
2021/10/15 10:38:19;;;;;;;12.43;2.40;;;14.00;99.90;;;;;;5050859;28;20146;-67
2021/10/15 10:41:00;;;;;;;13.90;2.17;;;13.90;99.90;;;;;;5050763;28;20080;-68
2021/10/15 10:43:45;;;;;;;13.45;2.70;;;14.00;99.90;;;;;;5047215;28;20123;-68
2021/10/15 10:46:24;;;;;;;11.43;2.78;;;14.10;99.90;;;;;;5049388;28;20045;-68
2021/10/15 10:48:49;;;;;;;8.48;2.20;;;14.20;99.90;;;;;;5050966;28;20052;-68
2021/10/15 10:51:27;;;;;;;9.43;1.67;;;14.50;99.90;;;;;;5050738;28;20045;-68
2021/10/15 10:54:10;;;;;;;5.97;1.60;;;14.30;99.90;;;;;;5050530;28;20049;-67
2021/10/15 10:56:39;;;;;;;5.85;1.63;;;13.80;99.90;;;;;;5055913;28;20086;-68
2021/10/15 10:59:25;;;;;;;8.25;1.70;;;13.60;99.90;;;;;;5063198;28;20075;-68
2021/10/15 11:02:01;;;;;;;8.93;2.03;;;13.60;99.90;;;;;;5047080;28;20083;-67
2021/10/15 11:04:34;;;;;;;9.70;2.03;;;13.60;99.90;;;;;;5048478;28;20044;-68
2021/10/15 11:07:03;;;;;;;14.40;2.97;;;13.60;99.90;;;;;;5050390;28;20037;-68
2021/10/15 11:09:42;;;;;;;11.13;2.28;;;13.30;99.90;;;;;;5048433;28;20075;-67
2021/10/15 11:12:10;;;;;;;13.02;2.88;;;13.40;99.90;;;;;;5031838;28;20041;-67
2021/10/15 11:14:58;;;;;;;12.18;2.00;;;13.40;99.90;;;;;;5031817;28;20052;-67
2021/10/15 11:17:36;;;;;;;12.25;2.40;;;13.60;99.90;;;;;;5049162;28;20059;-67
2021/10/15 11:20:18;;;;;;;10.73;2.38;;;13.60;99.90;;;;;;5030369;28;20041;-67
2021/10/15 11:23:08;;;;;;;11.60;2.00;;;13.70;99.90;;;;;;5031678;28;20110;-66
2021/10/15 11:25:39;;;;;;;11.00;2.35;;;13.80;99.90;;;;;;5020819;28;20045;-67
2021/10/15 11:28:11;;;;;;;14.88;2.20;;;13.80;99.90;;;;;;5047859;28;20115;-67
2021/10/15 11:30:40;;;;;;;13.07;2.35;;;13.90;99.90;;;;;;5051511;28;20044;-67
2021/10/15 11:33:11;;;;;;;14.30;2.25;;;13.90;99.90;;;;;;5049839;28;20466;-67
2021/10/15 11:35:38;;;;;;;11.13;2.40;;;14.00;99.90;;;;;;5048154;28;20041;-66
2021/10/15 11:38:13;;;;;;;9.25;2.33;;;14.10;99.90;;;;;;5049404;28;20088;-66
2021/10/15 11:40:43;;;;;;;8.80;2.10;;;13.90;98.50;;;;;;5051153;28;20048;-67
2021/10/15 11:43:16;;;;;;;8.77;2.28;;;13.80;99.90;;;;;;5051243;28;20064;-67
2021/10/15 11:45:45;;;;;;;8.05;2.30;;;13.80;99.90;;;;;;5049802;28;20041;-67
2021/10/15 11:48:16;;;;;;;7.90;1.92;;;13.80;99.70;;;;;;5050134;28;20363;-67
2021/10/15 11:51:01;;;;;;;10.77;2.40;;;13.80;98.30;;;;;;5033094;28;20091;-67
2021/10/15 11:53:30;;;;;;;12.00;2.22;;;13.90;99.90;;;;;;5049769;28;20099;-67
2021/10/15 11:55:56;;;;;;;8.85;1.73;;;14.00;99.90;;;;;;5048585;28;20390;-67
2021/10/15 11:58:28;;;;;;;14.05;2.65;;;14.30;99.90;;;;;;5029571;28;20045;-66
2021/10/15 12:01:00;;;;;;;10.98;2.65;;;14.50;99.90;;;;;;5030395;28;20049;-66
2021/10/15 12:03:26;;;;;;;16.70;2.78;;;14.50;99.90;;;;;;5028905;28;20052;-66
2021/10/15 12:05:52;;;;;;;11.88;2.83;;;14.30;99.30;;;;;;5045423;28;20501;-66
2021/10/15 12:08:18;;;;;;;10.80;2.83;;;14.10;99.90;;;;;;5047148;28;20167;-66
2021/10/15 12:10:44;;;;;;;12.48;3.00;;;13.70;99.90;;;;;;5049714;28;20044;-66
2021/10/15 12:13:10;;;;;;;13.90;2.35;;;13.70;99.90;;;;;;5048157;28;20051;-66
2021/10/15 12:15:35;;;;;;;15.65;3.38;;;13.80;99.90;;;;;;5049584;28;20044;-66
2021/10/15 12:18:09;;;;;;;12.30;2.85;;;14.00;99.90;;;;;;5051081;28;20122;-66
2021/10/15 12:20:35;;;;;;;12.57;3.10;;;14.20;99.90;;;;;;5050964;28;20048;-66
2021/10/15 12:23:05;;;;;;;13.52;3.00;;;14.20;99.30;;;;;;5050961;28;20036;-66
2021/10/15 12:25:31;;;;;;;14.23;3.05;;;14.30;99.90;;;;;;5049310;28;20072;-66
2021/10/15 12:27:57;;;;;;;10.70;2.10;;;14.30;99.90;;;;;;5049356;28;20052;-66
2021/10/15 12:30:25;;;;;;;11.00;2.45;;;14.10;99.90;;;;;;5050640;28;20751;-66
2021/10/15 12:32:54;;;;;;;12.85;2.40;;;14.20;99.90;;;;;;5049416;28;20053;-66
2021/10/15 12:35:24;;;;;;;10.57;2.75;;;13.80;99.90;;;;;;5051599;28;20118;-66
2021/10/15 12:37:50;;;;;;;12.27;2.40;;;13.50;99.90;;;;;;5052169;28;20053;-66
2021/10/15 12:40:33;;;;;;;13.07;2.33;;;13.40;99.90;;;;;;5054379;28;20474;-66
2021/10/15 12:43:15;;;;;;;16.67;2.70;;;13.50;99.90;;;;;;5034672;28;20038;-66
2021/10/15 12:45:49;;;;;;;9.90;2.25;;;13.60;99.90;;;;;;5049965;28;20033;-66
2021/10/15 12:48:34;;;;;;;11.70;2.78;;;13.80;99.90;;;;;;5054458;28;20055;-66
2021/10/15 12:51:10;;;;;;;9.95;1.65;;;14.00;99.90;;;;;;5035358;28;20049;-66